Time;durP1;ratioP1;P1;durP2;ratioP2;P2;SDS_P1;SDS_P2;PMS_P1;PMS_P2;Temp;Humidity;BMP_temperature;BMP_pressure;BME280_temperature;BME280_humidity;BME280_pressure;Samples;Min_cycle;Max_cycle;Signal;HPM_P1;HPM_P2
2022/06/12 00:01:09;;;;;;;9.93;4.00;;;;;;;20.00;49.05;102166.09;5019154;28;20049;-69
2022/06/12 00:03:38;;;;;;;7.90;3.63;;;;;;;19.94;49.18;102166.63;5032171;28;20356;-68
2022/06/12 00:06:06;;;;;;;9.25;4.15;;;;;;;19.88;49.25;102164.47;5032238;28;20475;-69
2022/06/12 00:08:38;;;;;;;9.07;3.70;;;;;;;19.80;49.45;102161.56;5031387;28;20514;-68
2022/06/12 00:11:13;;;;;;;7.38;3.92;;;;;;;19.72;49.20;102164.97;5034234;28;20120;-69
2022/06/12 00:13:44;;;;;;;7.88;3.80;;;;;;;19.66;49.41;102165.50;5032086;28;20073;-69
2022/06/12 00:16:13;;;;;;;8.80;4.13;;;;;;;19.62;49.66;102158.59;5032061;28;20049;-69
2022/06/12 00:18:40;;;;;;;10.85;3.40;;;;;;;19.54;49.74;102158.44;5041083;28;20037;-69
2022/06/12 00:21:11;;;;;;;7.90;3.60;;;;;;;19.48;49.71;102157.06;5040868;28;20505;-69
2022/06/12 00:23:49;;;;;;;8.00;3.40;;;;;;;19.42;49.72;102156.75;5035254;28;20115;-68
2022/06/12 00:26:44;;;;;;;6.13;4.30;;;;;;;19.38;49.59;102160.75;5033540;28;20523;-69
2022/06/12 00:29:15;;;;;;;8.80;3.90;;;;;;;19.38;49.90;102166.19;5036409;28;20512;-69
2022/06/12 00:31:50;;;;;;;7.93;3.75;;;;;;;19.33;49.66;102161.16;5033486;28;20095;-68
2022/06/12 00:34:27;;;;;;;8.60;3.90;;;;;;;19.27;49.90;102161.66;5046023;28;20525;-68
2022/06/12 00:36:54;;;;;;;6.18;3.40;;;;;;;19.21;50.15;102154.88;5035826;28;20044;-68
2022/06/12 00:39:22;;;;;;;7.18;4.15;;;;;;;19.15;50.00;102154.53;5041759;28;20056;-69
2022/06/12 00:41:51;;;;;;;8.00;4.07;;;;;;;19.11;49.98;102150.34;5032470;28;20042;-69
2022/06/12 00:44:22;;;;;;;8.38;3.30;;;;;;;19.05;50.41;102158.06;5031733;28;20442;-69
2022/06/12 00:47:01;;;;;;;5.15;3.72;;;;;;;18.98;50.51;102156.00;5032182;28;20052;-68
2022/06/12 00:49:39;;;;;;;7.80;3.90;;;;;;;18.89;50.21;102157.66;5040000;28;20043;-67
2022/06/12 00:52:13;;;;;;;8.60;4.43;;;;;;;18.80;50.78;102155.72;5028665;28;20542;-69
2022/06/12 00:54:43;;;;;;;5.90;3.92;;;;;;;18.73;50.65;102157.22;5025296;28;20038;-69
2022/06/12 00:57:11;;;;;;;7.63;4.20;;;;;;;18.67;50.75;102152.31;5037124;28;20069;-69
2022/06/12 00:59:54;;;;;;;8.82;4.18;;;;;;;18.62;50.78;102155.41;5030668;28;20042;-68
2022/06/12 01:02:31;;;;;;;11.73;4.85;;;;;;;18.63;51.03;102156.28;5032011;28;20068;-69
2022/06/12 01:07:48;;;;;;;9.25;4.25;;;;;;;18.54;51.06;102157.00;5031280;28;20088;-69
2022/06/12 01:10:18;;;;;;;6.53;3.80;;;;;;;18.46;50.89;102165.78;5031799;28;20045;-69
2022/06/12 01:12:52;;;;;;;7.38;3.28;;;;;;;18.39;51.51;102162.72;5035321;28;20045;-69
2022/06/12 01:15:25;;;;;;;7.53;3.60;;;;;;;18.33;51.38;102159.66;5041551;28;20045;-68
2022/06/12 01:17:55;;;;;;;7.20;3.65;;;;;;;18.27;51.04;102152.88;5033118;28;20569;-69
2022/06/12 01:20:25;;;;;;;5.95;3.88;;;;;;;18.20;51.31;102162.53;5051449;28;20522;-68
2022/06/12 01:23:19;;;;;;;10.98;4.07;;;;;;;18.12;51.76;102159.56;5038205;28;20503;-69
2022/06/12 01:25:48;;;;;;;5.80;3.58;;;;;;;18.12;51.53;102159.56;5045112;28;20045;-68
2022/06/12 01:28:33;;;;;;;6.22;4.25;;;;;;;18.08;51.59;102158.97;5037698;28;20334;-69
2022/06/12 01:31:24;;;;;;;9.18;4.10;;;;;;;18.08;51.99;102163.53;5047491;28;20045;-68
2022/06/12 01:34:14;;;;;;;8.20;3.75;;;;;;;18.06;51.79;102168.22;4996811;28;20073;-68
2022/06/12 01:36:42;;;;;;;7.50;3.97;;;;;;;18.04;51.75;102159.34;5045948;28;20087;-68
2022/06/12 01:39:23;;;;;;;7.28;3.72;;;;;;;18.00;52.01;102157.84;5027109;28;20115;-69
2022/06/12 01:42:41;;;;;;;7.30;3.95;;;;;;;17.97;52.09;102160.81;5028620;28;20064;-68
2022/06/12 01:45:25;;;;;;;7.32;4.32;;;;;;;17.97;52.06;102155.38;5032015;28;20553;-69
2022/06/12 01:48:14;;;;;;;6.43;4.45;;;;;;;17.94;51.90;102161.94;5029782;28;20132;-69
2022/06/12 01:50:46;;;;;;;8.45;4.38;;;;;;;17.94;52.07;102159.22;5035447;28;20064;-69
2022/06/12 01:53:35;;;;;;;6.05;4.50;;;;;;;17.93;52.07;102152.06;5024683;28;20038;-68
2022/06/12 01:56:10;;;;;;;9.55;4.18;;;;;;;17.94;52.18;102148.34;5030930;28;20096;-69
2022/06/12 01:58:46;;;;;;;7.07;4.25;;;;;;;17.91;51.70;102143.16;5032397;28;20267;-69
2022/06/12 02:01:33;;;;;;;7.80;3.70;;;;;;;17.88;51.88;102137.97;5034343;28;20081;-69
2022/06/12 02:04:24;;;;;;;6.82;3.67;;;;;;;17.85;51.95;102142.81;5030727;28;20088;-68
2022/06/12 02:07:13;;;;;;;7.55;4.00;;;;;;;17.78;51.92;102139.69;5032942;28;20041;-69
2022/06/12 02:09:46;;;;;;;8.07;4.45;;;;;;;17.74;52.00;102132.75;5032781;28;20391;-69
2022/06/12 02:15:29;;;;;;;10.20;4.30;;;;;;;17.73;51.79;102147.34;5024473;28;20069;-69
2022/06/12 02:18:05;;;;;;;7.50;4.07;;;;;;;17.71;52.00;102141.16;5032817;28;20629;-69
2022/06/12 02:20:40;;;;;;;7.65;4.80;;;;;;;17.67;52.13;102148.69;5037869;28;20056;-68
2022/06/12 02:23:14;;;;;;;8.70;4.20;;;;;;;17.63;52.23;102143.59;5035051;28;20061;-68
2022/06/12 02:25:44;;;;;;;6.93;4.32;;;;;;;17.57;51.96;102142.25;5034972;28;20439;-69
2022/06/12 02:28:21;;;;;;;4.53;3.60;;;;;;;17.53;52.11;102146.19;5023723;28;20500;-68
2022/06/12 02:30:52;;;;;;;8.30;3.92;;;;;;;17.53;52.13;102151.63;5031677;28;20049;-69
2022/06/12 02:33:22;;;;;;;9.05;4.70;;;;;;;17.52;52.45;102144.47;5025198;28;20442;-68
2022/06/12 02:35:53;;;;;;;8.93;3.58;;;;;;;17.48;52.50;102138.41;5044078;28;20053;-68
2022/06/12 02:38:25;;;;;;;8.43;3.97;;;;;;;17.46;52.46;102140.38;5036788;28;20407;-68
2022/06/12 02:41:01;;;;;;;10.23;3.97;;;;;;;17.45;52.64;102144.09;5037146;28;20041;-68
2022/06/12 02:43:36;;;;;;;6.75;4.00;;;;;;;17.43;52.22;102140.63;5019107;28;20403;-68
2022/06/12 02:46:16;;;;;;;7.93;4.20;;;;;;;17.42;52.64;102138.03;5020854;28;20120;-68
2022/06/12 02:48:43;;;;;;;9.80;3.75;;;;;;;17.43;52.51;102140.63;5028245;28;20041;-69
2022/06/12 02:51:17;;;;;;;8.43;3.80;;;;;;;17.44;52.51;102138.78;5030087;28;20037;-68
2022/06/12 02:54:00;;;;;;;7.85;4.20;;;;;;;17.44;52.51;102136.94;5042736;28;20095;-69
2022/06/12 02:56:41;;;;;;;6.47;3.63;;;;;;;17.43;52.15;102131.63;5034412;28;20062;-68
2022/06/12 02:59:23;;;;;;;7.43;3.08;;;;;;;17.35;51.88;102128.66;5020405;28;20072;-68
2022/06/12 03:02:37;;;;;;;6.30;3.47;;;;;;;17.26;52.11;102129.38;5031935;28;20045;-69
2022/06/12 03:05:28;;;;;;;8.75;3.47;;;;;;;17.14;52.18;102123.06;5013969;28;20579;-69
2022/06/12 03:08:03;;;;;;;8.35;3.60;;;;;;;17.06;52.34;102125.47;5037215;28;20111;-69
2022/06/12 03:10:36;;;;;;;10.32;4.40;;;;;;;17.00;52.24;102112.38;5033345;28;20041;-69
2022/06/12 03:13:29;;;;;;;9.05;4.03;;;;;;;16.94;52.42;102121.88;5034598;28;20033;-68
2022/06/12 03:16:11;;;;;;;8.45;3.85;;;;;;;16.94;52.41;102121.00;5032429;28;20040;-69
2022/06/12 03:18:41;;;;;;;9.60;3.55;;;;;;;16.96;52.58;102119.91;5032875;28;20538;-69
2022/06/12 03:21:29;;;;;;;9.15;3.50;;;;;;;16.97;52.37;102127.06;5034716;28;20040;-67
2022/06/12 03:24:13;;;;;;;6.65;3.47;;;;;;;17.01;52.61;102128.56;5032969;28;20519;-67
2022/06/12 03:26:58;;;;;;;13.57;3.55;;;;;;;17.04;52.38;102127.44;5037784;28;20490;-68
2022/06/12 03:30:09;;;;;;;10.07;3.77;;;;;;;17.03;52.33;102137.44;5032351;28;20547;-67
2022/06/12 03:33:04;;;;;;;6.60;3.35;;;;;;;17.04;52.44;102141.88;5047633;28;20856;-67
2022/06/12 03:35:58;;;;;;;11.75;3.80;;;;;;;17.03;52.61;102144.72;5045490;28;20515;-68
2022/06/12 03:38:34;;;;;;;9.18;3.78;;;;;;;17.04;52.63;102139.16;5023704;28;20041;-69
2022/06/12 03:41:23;;;;;;;8.57;4.07;;;;;;;17.05;52.65;102134.59;5034258;28;20046;-69
2022/06/12 03:44:14;;;;;;;6.65;3.33;;;;;;;17.02;52.49;102148.41;5033758;28;20042;-68
2022/06/12 03:46:48;;;;;;;9.35;4.03;;;;;;;17.00;52.53;102145.81;5038635;28;20116;-68
2022/06/12 03:49:33;;;;;;;7.15;4.45;;;;;;;16.99;53.06;102141.38;5037896;28;20069;-68
2022/06/12 03:52:25;;;;;;;7.13;3.95;;;;;;;16.99;52.96;102151.38;5032025;28;20055;-69
2022/06/12 03:55:01;;;;;;;9.00;3.88;;;;;;;17.02;52.76;102145.69;5041751;28;20483;-68
2022/06/12 03:57:51;;;;;;;7.55;4.28;;;;;;;17.04;52.93;102138.31;5035410;28;20128;-68
2022/06/12 04:00:21;;;;;;;8.00;4.00;;;;;;;17.05;52.95;102134.59;5044221;28;20038;-68
2022/06/12 04:02:56;;;;;;;10.57;4.10;;;;;;;17.06;52.85;102137.19;5034972;28;20502;-68
2022/06/12 04:05:49;;;;;;;9.43;3.97;;;;;;;17.03;52.69;102137.44;5034095;28;20518;-69
2022/06/12 04:08:22;;;;;;;5.95;4.05;;;;;;;17.05;52.78;102138.19;5037869;28;20515;-69
2022/06/12 04:10:51;;;;;;;13.52;3.80;;;;;;;17.03;52.76;102137.44;5045162;28;20041;-68
2022/06/12 04:13:21;;;;;;;6.47;3.80;;;;;;;17.00;52.91;102148.53;5031459;28;20402;-68
2022/06/12 04:16:22;;;;;;;9.65;4.22;;;;;;;16.97;53.25;102150.63;5031469;28;20038;-68
2022/06/12 04:18:50;;;;;;;8.32;4.10;;;;;;;17.00;52.86;102142.25;5036239;28;20037;-68
2022/06/12 04:21:34;;;;;;;7.25;4.00;;;;;;;17.00;53.46;102142.25;5033358;28;20044;-68
2022/06/12 04:24:04;;;;;;;7.88;3.90;;;;;;;17.01;53.17;102147.56;5043573;28;20071;-68
2022/06/12 04:26:39;;;;;;;12.27;4.20;;;;;;;17.05;53.76;102145.47;5026789;28;20068;-68
2022/06/12 04:29:18;;;;;;;10.02;4.97;;;;;;;17.05;53.53;102145.47;5031469;28;20037;-68
2022/06/12 04:31:48;;;;;;;10.45;4.47;;;;;;;17.06;53.74;102141.78;5029684;28;20116;-68
2022/06/12 04:34:20;;;;;;;9.70;5.82;;;;;;;17.07;53.86;102143.50;5032661;28;20046;-68
2022/06/12 04:36:50;;;;;;;12.13;4.85;;;;;;;17.09;53.98;102142.44;5041311;28;20051;-68
2022/06/12 04:39:21;;;;;;;9.80;4.55;;;;;;;17.12;53.92;102146.75;5046100;28;20119;-68
2022/06/12 04:41:49;;;;;;;7.88;4.60;;;;;;;17.15;53.93;102146.50;5039440;28;20046;-68
2022/06/12 04:44:17;;;;;;;9.02;5.47;;;;;;;17.20;54.38;102148.88;5033104;28;20037;-68
2022/06/12 04:46:47;;;;;;;8.32;4.70;;;;;;;17.22;54.36;102145.03;5026228;28;20060;-68
2022/06/12 04:49:17;;;;;;;12.05;5.30;;;;;;;17.27;54.39;102153.69;5036591;28;20120;-68
2022/06/12 04:51:44;;;;;;;11.27;5.40;;;;;;;17.30;54.51;102153.44;5032112;28;20145;-68
2022/06/12 04:54:27;;;;;;;10.88;4.97;;;;;;;17.34;54.52;102154.06;5033281;28;20105;-68
2022/06/12 04:56:53;;;;;;;9.27;5.63;;;;;;;17.40;54.48;102153.59;5036923;28;20563;-68
2022/06/12 04:59:20;;;;;;;11.32;6.13;;;;;;;17.43;54.77;102164.22;5035545;28;20614;-68
2022/06/12 05:01:48;;;;;;;14.73;5.72;;;;;;;17.48;54.98;102162.00;5034956;28;20041;-69
2022/06/12 05:04:17;;;;;;;9.32;5.88;;;;;;;17.52;55.15;102155.31;5034988;28;20069;-68
2022/06/12 05:06:44;;;;;;;13.02;5.78;;;;;;;17.58;54.95;102160.28;5048335;28;20049;-68
2022/06/12 05:09:13;;;;;;;11.55;5.57;;;;;;;17.64;55.06;102153.47;5035129;28;20034;-68
2022/06/12 05:11:42;;;;;;;13.30;6.10;;;;;;;17.70;54.84;102153.03;5034691;28;20076;-68
2022/06/12 05:14:10;;;;;;;13.25;5.90;;;;;;;17.75;55.34;102142.66;5033616;28;20064;-69
2022/06/12 05:16:42;;;;;;;18.20;6.70;;;;;;;17.81;55.23;102152.16;5044734;28;20048;-68
2022/06/12 05:19:12;;;;;;;14.88;6.28;;;;;;;17.87;55.03;102148.97;5036578;28;20117;-68
2022/06/12 05:21:40;;;;;;;14.13;6.30;;;;;;;17.93;55.41;102156.63;5041679;28;20478;-68
2022/06/12 05:24:09;;;;;;;14.98;5.85;;;;;;;17.97;55.36;102150.81;5034521;28;20103;-68
2022/06/12 05:26:39;;;;;;;11.65;5.90;;;;;;;18.02;55.28;102145.00;5042218;28;20041;-67
2022/06/12 05:29:11;;;;;;;15.57;6.18;;;;;;;18.07;55.58;102153.66;5038595;28;20141;-68
2022/06/12 05:31:37;;;;;;;11.88;6.07;;;;;;;18.11;55.17;102146.97;5040412;28;20059;-68
2022/06/12 05:34:04;;;;;;;14.60;6.05;;;;;;;18.14;55.43;102152.16;5037471;28;20057;-68
2022/06/12 05:36:31;;;;;;;12.95;5.97;;;;;;;18.18;55.36;102153.63;5037445;28;20048;-68
2022/06/12 05:38:57;;;;;;;13.80;5.80;;;;;;;18.23;55.25;102158.69;5036636;28;20050;-68
2022/06/12 05:41:24;;;;;;;17.15;5.97;;;;;;;18.27;55.31;102161.03;5038782;28;20073;-68
2022/06/12 05:43:52;;;;;;;19.10;5.80;;;;;;;18.33;55.37;102154.22;5046036;28;20499;-68
2022/06/12 05:46:18;;;;;;;13.98;5.63;;;;;;;18.37;55.31;102156.53;5033085;28;20042;-68
2022/06/12 05:48:46;;;;;;;14.80;6.68;;;;;;;18.43;55.43;102153.31;5039068;28;20068;-67
2022/06/12 05:51:15;;;;;;;16.95;6.30;;;;;;;18.48;55.39;102161.09;5042992;28;20044;-67
2022/06/12 05:53:41;;;;;;;17.38;6.57;;;;;;;18.56;55.27;102157.72;5035558;28;20037;-67
2022/06/12 05:56:13;;;;;;;14.45;6.78;;;;;;;18.66;55.56;102164.19;5035292;28;20033;-67
2022/06/12 05:58:40;;;;;;;16.10;7.00;;;;;;;18.75;55.75;102166.13;5040083;28;20060;-67
2022/06/12 06:01:10;;;;;;;16.90;6.43;;;;;;;18.84;55.41;102167.19;5024423;28;20037;-68
2022/06/12 06:03:41;;;;;;;16.83;6.47;;;;;;;18.93;55.56;102167.28;5032694;28;20108;-68
2022/06/12 06:06:13;;;;;;;15.20;6.28;;;;;;;19.01;55.00;102174.78;5041777;28;20041;-68
2022/06/12 06:08:40;;;;;;;14.25;6.75;;;;;;;19.10;55.47;102175.84;5033203;28;20522;-70
2022/06/12 06:11:07;;;;;;;18.15;7.00;;;;;;;19.19;55.26;102170.47;5033324;28;20112;-69
2022/06/12 06:13:59;;;;;;;14.85;6.88;;;;;;;19.28;55.49;102171.53;5022956;28;20069;-68
2022/06/12 06:16:25;;;;;;;11.63;6.65;;;;;;;19.40;55.10;102170.50;5021887;28;20081;-68
2022/06/12 06:18:55;;;;;;;13.13;6.85;;;;;;;19.50;55.18;102167.84;5027630;28;20056;-69
2022/06/12 06:21:22;;;;;;;17.50;7.70;;;;;;;19.60;55.11;102168.78;5016837;28;20056;-69
2022/06/12 06:23:49;;;;;;;16.67;6.88;;;;;;;19.74;55.08;102178.47;5020422;28;20119;-69
2022/06/12 06:26:16;;;;;;;19.58;7.45;;;;;;;19.84;54.80;102176.63;5021909;28;20037;-68
2022/06/12 06:28:43;;;;;;;17.63;6.95;;;;;;;19.97;54.99;102169.09;5022478;28;20042;-68
2022/06/12 06:31:10;;;;;;;13.15;7.03;;;;;;;20.15;55.17;102177.50;5017404;28;20550;-68
2022/06/12 06:33:42;;;;;;;14.70;6.57;;;;;;;20.30;55.15;102167.94;5016563;28;20446;-70
2022/06/12 06:36:11;;;;;;;18.45;7.03;;;;;;;20.45;54.85;102171.16;5029153;28;20058;-69
2022/06/12 06:38:38;;;;;;;16.75;6.90;;;;;;;20.60;54.55;102178.78;5016556;28;20466;-69
2022/06/12 06:41:05;;;;;;;23.63;6.82;;;;;;;20.73;54.41;102178.50;5030085;28;20033;-67
2022/06/12 06:46:13;;;;;;;18.13;7.03;;;;;;;20.87;54.68;102174.50;5023779;28;20072;-67
2022/06/12 06:46:20;;;;;;;24.90;7.70;;;;;;;21.05;54.21;102182.84;5037333;28;20069;-66
2022/06/12 06:48:47;;;;;;;12.73;6.93;;;;;;;21.24;54.44;102183.72;5016244;28;20532;-67
2022/06/12 06:51:13;;;;;;;17.85;6.63;;;;;;;21.43;54.41;102181.94;5028316;28;20037;-67
2022/06/12 06:53:47;;;;;;;25.75;7.53;;;;;;;21.58;53.85;102182.38;5034989;28;20033;-67
2022/06/12 06:56:15;;;;;;;21.92;7.65;;;;;;;21.74;53.99;102182.63;5033330;28;20061;-67
2022/06/12 06:58:43;;;;;;;21.73;7.13;;;;;;;21.91;53.96;102187.28;5032734;28;20088;-67
2022/06/12 07:01:09;;;;;;;15.25;6.43;;;;;;;22.05;53.21;102185.97;5032976;28;20048;-66
2022/06/12 07:03:44;;;;;;;15.05;6.32;;;;;;;22.14;53.15;102182.31;5032629;28;19921;-67
2022/06/12 07:06:14;;;;;;;17.50;6.50;;;;;;;22.28;52.72;102186.41;5032536;28;20075;-66
2022/06/12 07:08:45;;;;;;;16.17;6.80;;;;;;;22.35;52.89;102188.44;5034330;28;20052;-68
2022/06/12 07:11:11;;;;;;;16.27;6.50;;;;;;;22.42;52.56;102180.47;5034927;28;20029;-68
2022/06/12 07:13:38;;;;;;;17.02;6.38;;;;;;;22.51;52.58;102187.75;5032749;28;20041;-67
2022/06/12 07:16:05;;;;;;;15.75;6.53;;;;;;;22.61;51.97;102191.28;5032187;28;20606;-67
2022/06/12 07:18:32;;;;;;;18.20;6.35;;;;;;;22.72;51.76;102187.44;5031990;28;20052;-67
2022/06/12 07:21:01;;;;;;;13.13;4.90;;;;;;;22.87;51.59;102190.53;5032039;28;20321;-67
2022/06/12 07:23:29;;;;;;;15.65;6.40;;;;;;;23.06;51.72;102180.31;5032048;28;20052;-68
2022/06/12 07:26:04;;;;;;;14.48;5.63;;;;;;;23.25;51.23;102189.34;5032081;28;20046;-67
2022/06/12 07:28:34;;;;;;;18.27;5.75;;;;;;;23.33;51.02;102184.81;5032085;28;20065;-68
2022/06/12 07:31:03;;;;;;;14.32;5.32;;;;;;;23.42;50.61;102183.84;5032016;28;20033;-68
2022/06/12 07:33:29;;;;;;;16.83;6.18;;;;;;;23.53;50.35;102187.34;5031885;28;20041;-68
2022/06/12 07:35:56;;;;;;;14.07;5.38;;;;;;;23.65;50.09;102186.94;5031965;28;20128;-68
2022/06/12 07:38:25;;;;;;;15.88;5.60;;;;;;;23.77;49.68;102188.38;5031866;28;20136;-68
2022/06/12 07:40:57;;;;;;;14.63;5.53;;;;;;;23.96;49.65;102192.78;5031705;28;20041;-68
2022/06/12 07:43:33;;;;;;;15.85;5.55;;;;;;;24.12;49.20;102192.00;5031649;28;20107;-68
2022/06/12 07:46:02;;;;;;;11.75;4.57;;;;;;;24.22;49.04;102190.00;5031497;28;20037;-69
2022/06/12 07:48:31;;;;;;;15.15;5.55;;;;;;;24.31;48.59;102194.50;5034791;28;20412;-68
2022/06/12 07:51:00;;;;;;;15.48;5.20;;;;;;;24.42;48.32;102193.34;5031872;28;20041;-69
2022/06/12 07:53:31;;;;;;;15.95;5.50;;;;;;;24.53;48.35;102186.72;5039443;28;20041;-69
2022/06/12 07:55:58;;;;;;;10.68;4.88;;;;;;;24.63;47.99;102191.03;5033977;28;20041;-69
2022/06/12 07:58:25;;;;;;;10.93;4.20;;;;;;;24.74;47.68;102191.72;5049066;28;20058;-69
2022/06/12 08:00:55;;;;;;;15.52;5.18;;;;;;;24.82;47.32;102191.75;5034202;28;20076;-67
2022/06/12 08:03:23;;;;;;;13.13;5.40;;;;;;;24.92;46.96;102187.81;5034268;28;20460;-69
2022/06/12 08:05:49;;;;;;;13.77;4.38;;;;;;;24.96;46.46;102185.56;5034527;28;20072;-67
2022/06/12 08:08:16;;;;;;;18.33;5.55;;;;;;;24.98;46.15;102186.28;5053961;28;20041;-68
2022/06/12 08:10:43;;;;;;;15.00;6.15;;;;;;;25.02;45.94;102182.19;5040977;28;20040;-68
2022/06/12 08:13:11;;;;;;;14.18;4.88;;;;;;;25.03;46.11;102183.91;5022633;28;20112;-68
2022/06/12 08:15:40;;;;;;;11.93;4.18;;;;;;;25.09;46.13;102187.84;5033936;28;20045;-68
2022/06/12 08:18:07;;;;;;;10.38;4.18;;;;;;;25.24;46.00;102186.97;5032496;28;20106;-67
2022/06/12 08:20:38;;;;;;;13.20;4.88;;;;;;;25.38;45.79;102187.34;5018419;28;20081;-68
2022/06/12 08:23:29;;;;;;;10.80;4.22;;;;;;;25.48;44.81;102185.28;5032012;28;20060;-67
2022/06/12 08:26:00;;;;;;;13.32;4.10;;;;;;;25.54;44.92;102176.31;5031689;28;20396;-67
2022/06/12 08:28:29;;;;;;;12.07;4.68;;;;;;;25.53;44.73;102183.72;5030953;28;20044;-68
2022/06/12 08:30:56;;;;;;;15.32;4.93;;;;;;;25.52;44.68;102176.50;5031838;28;20503;-69
2022/06/12 08:33:27;;;;;;;13.80;4.35;;;;;;;25.55;44.63;102189.03;5032154;28;20042;-69
2022/06/12 08:35:54;;;;;;;14.52;4.53;;;;;;;25.56;44.54;102179.75;5031767;28;20061;-69
2022/06/12 08:38:21;;;;;;;12.05;4.68;;;;;;;25.55;44.43;102184.41;5032430;28;20128;-68
2022/06/12 08:40:57;;;;;;;16.38;5.10;;;;;;;25.54;44.36;102184.56;5032221;28;20033;-68
2022/06/12 08:43:34;;;;;;;11.10;4.35;;;;;;;25.51;44.21;102193.16;5031425;28;20187;-68
2022/06/12 08:46:08;;;;;;;12.70;4.32;;;;;;;25.48;44.03;102183.38;5036008;28;20434;-68
2022/06/12 08:48:53;;;;;;;14.48;4.93;;;;;;;25.48;43.81;102188.88;5033744;28;20415;-68
2022/06/12 08:51:30;;;;;;;9.00;3.97;;;;;;;25.54;43.98;102176.31;5034008;28;20103;-68
2022/06/12 08:54:12;;;;;;;14.77;4.13;;;;;;;25.67;43.95;102171.16;5035897;28;20073;-68
2022/06/12 08:56:54;;;;;;;16.40;4.65;;;;;;;25.74;43.86;102176.81;5029692;28;20033;-68
2022/06/12 08:59:42;;;;;;;10.93;4.20;;;;;;;25.81;43.59;102175.06;5030958;28;20049;-68
2022/06/12 09:02:21;;;;;;;9.25;3.83;;;;;;;25.83;43.27;102165.59;5032127;28;20116;-69
2022/06/12 09:04:57;;;;;;;15.27;4.38;;;;;;;25.85;43.21;102173.69;5033347;28;20110;-68
2022/06/12 09:07:56;;;;;;;11.43;4.28;;;;;;;25.90;43.24;102169.38;5033224;28;20072;-68
2022/06/12 09:10:30;;;;;;;10.07;4.38;;;;;;;25.96;42.84;102162.28;5031448;28;20096;-68
2022/06/12 09:13:15;;;;;;;10.52;3.30;;;;;;;26.00;42.64;102165.53;5032590;28;20029;-68
2022/06/12 09:15:53;;;;;;;12.80;3.42;;;;;;;26.08;42.42;102163.66;5019868;28;20132;-69
2022/06/12 09:18:44;;;;;;;8.70;3.13;;;;;;;26.12;42.25;102161.41;5036319;28;20095;-69
2022/06/12 09:21:23;;;;;;;8.00;3.63;;;;;;;26.20;41.96;102162.22;5048570;28;20041;-68
2022/06/12 09:24:31;;;;;;;13.70;4.68;;;;;;;26.25;42.12;102159.78;5034066;28;20037;-68
2022/06/12 09:27:26;;;;;;;14.02;4.30;;;;;;;26.34;42.09;102155.13;5011182;28;20137;-68
2022/06/12 09:30:05;;;;;;;13.52;5.63;;;;;;;26.48;42.06;102153.47;5019374;28;20038;-69
2022/06/12 09:32:40;;;;;;;10.95;4.65;;;;;;;26.64;42.28;102156.13;5034097;28;20040;-68
2022/06/12 09:35:29;;;;;;;11.32;3.85;;;;;;;26.74;41.55;102159.50;5043703;28;20046;-69
2022/06/12 09:38:23;;;;;;;9.35;2.90;;;;;;;26.83;41.23;102149.31;5030908;28;20050;-68
2022/06/12 09:41:10;;;;;;;13.35;3.42;;;;;;;26.94;41.03;102153.53;5031956;28;20041;-68
2022/06/12 09:43:51;;;;;;;13.57;3.92;;;;;;;27.04;40.88;102149.50;5034188;28;20545;-68
2022/06/12 09:46:34;;;;;;;12.77;3.75;;;;;;;27.12;40.68;102146.66;5034053;28;20128;-68
2022/06/12 09:49:31;;;;;;;8.70;2.17;;;;;;;27.22;39.41;102143.66;5034790;28;20068;-67
2022/06/12 09:52:33;;;;;;;8.73;3.30;;;;;;;27.32;39.55;102140.63;5034608;28;20111;-68
2022/06/12 09:55:32;;;;;;;8.23;2.55;;;;;;;27.47;39.32;102138.72;5033730;28;20151;-68
2022/06/12 09:58:30;;;;;;;5.45;1.90;;;;;;;27.50;38.30;102141.16;5033815;28;20041;-68
2022/06/12 10:01:04;;;;;;;6.75;2.20;;;;;;;27.47;37.86;102141.50;5033815;28;20045;-67
2022/06/12 10:03:35;;;;;;;;;;;;;;;27.42;37.81;102131.03;5033708;28;20046;-68
2022/06/12 10:06:09;;;;;;;8.10;2.67;;;;;;;27.46;38.14;102139.78;5033740;28;19928;-68
2022/06/12 10:08:49;;;;;;;9.45;3.00;;;;;;;27.49;38.51;102143.03;5033719;28;20041;-68
2022/06/12 10:11:25;;;;;;;12.20;3.10;;;;;;;27.62;38.32;102136.91;5024635;28;20050;-68
2022/06/12 10:14:00;;;;;;;7.78;2.90;;;;;;;27.71;37.88;102138.53;5029941;28;20042;-69
2022/06/12 10:16:40;;;;;;;9.43;2.83;;;;;;;27.75;37.57;102139.84;5033414;28;20037;-68
2022/06/12 10:19:35;;;;;;;11.65;3.50;;;;;;;27.82;37.78;102137.19;5033619;28;20030;-68
2022/06/12 10:22:16;;;;;;;12.73;3.85;;;;;;;27.89;37.33;102142.78;5033262;28;20038;-69
2022/06/12 10:24:49;;;;;;;8.63;3.08;;;;;;;28.03;37.64;102134.50;5033658;28;20049;-69
2022/06/12 10:27:19;;;;;;;8.25;3.35;;;;;;;28.07;37.39;102148.78;5033162;28;20038;-68
2022/06/12 10:29:46;;;;;;;8.95;3.25;;;;;;;28.09;37.72;102136.47;5033460;28;20044;-68
2022/06/12 10:32:20;;;;;;;12.73;3.47;;;;;;;28.23;38.00;102136.66;5033274;28;20107;-68
2022/06/12 10:34:47;;;;;;;8.20;3.33;;;;;;;28.39;37.78;102128.19;5033710;28;20041;-68
2022/06/12 10:37:27;;;;;;;7.03;2.97;;;;;;;28.50;37.51;102132.34;5033519;28;20038;-68
2022/06/12 10:40:13;;;;;;;8.40;2.58;;;;;;;28.52;36.74;102139.38;5034869;28;20034;-68
2022/06/12 10:43:00;;;;;;;9.00;2.90;;;;;;;28.40;36.67;102136.28;5032646;28;20132;-68
2022/06/12 10:45:33;;;;;;;8.32;3.28;;;;;;;28.36;36.38;102126.66;5032971;28;20033;-68
2022/06/12 10:48:21;;;;;;;8.25;2.75;;;;;;;28.34;36.31;102125.16;5032996;28;20029;-68
2022/06/12 10:50:53;;;;;;;9.48;2.72;;;;;;;28.39;36.55;102123.50;5032864;28;20038;-68
2022/06/12 10:53:23;;;;;;;7.55;2.70;;;;;;;28.42;36.55;102125.03;5032671;28;20068;-68
2022/06/12 10:55:57;;;;;;;8.05;2.90;;;;;;;28.42;36.27;102123.13;5032731;28;20025;-68
2022/06/12 10:58:50;;;;;;;8.65;3.22;;;;;;;28.36;36.10;102115.63;5032878;28;20060;-67
2022/06/12 11:01:35;;;;;;;7.45;3.13;;;;;;;28.35;35.89;102116.66;5032616;28;20139;-68
2022/06/12 11:04:07;;;;;;;8.48;2.72;;;;;;;28.38;36.31;102110.75;5032344;28;20041;-68
2022/06/12 11:06:40;;;;;;;8.38;2.90;;;;;;;28.42;35.96;102113.97;5031371;28;20091;-68
2022/06/12 11:09:19;;;;;;;15.23;4.00;;;;;;;28.34;36.06;102109.44;5031143;28;20507;-68
2022/06/12 11:12:20;;;;;;;6.50;2.85;;;;;;;28.30;36.01;102113.63;5032225;28;20042;-68
2022/06/12 11:14:55;;;;;;;10.43;3.35;;;;;;;28.29;36.14;102117.44;5032309;28;20045;-68
2022/06/12 11:17:37;;;;;;;10.10;3.15;;;;;;;28.29;36.14;102111.94;5032260;28;20044;-68
2022/06/12 11:20:47;;;;;;;9.05;3.30;;;;;;;28.31;35.90;102107.06;5032392;28;20034;-68
2022/06/12 11:23:22;;;;;;;7.82;3.20;;;;;;;28.35;36.10;102113.06;5031972;28;20470;-68
2022/06/12 11:26:24;;;;;;;7.10;3.15;;;;;;;28.41;35.92;102110.34;5031034;28;20103;-68
2022/06/12 11:29:01;;;;;;;13.43;3.75;;;;;;;28.42;35.59;102105.69;5032142;28;20049;-68
2022/06/12 11:32:06;;;;;;;7.97;2.90;;;;;;;28.44;35.62;102106.34;5031952;28;20041;-68
2022/06/12 11:35:09;;;;;;;8.50;2.67;;;;;;;28.55;35.45;102093.91;5031849;28;20403;-68
2022/06/12 11:38:13;;;;;;;12.45;2.65;;;;;;;28.70;35.50;102094.69;5032045;28;20045;-68
2022/06/12 11:41:00;;;;;;;7.05;2.60;;;;;;;28.87;35.18;102092.53;5029461;28;20742;-68
2022/06/12 11:43:42;;;;;;;9.85;2.90;;;;;;;29.02;35.27;102094.19;5030579;28;20561;-68
2022/06/12 11:46:32;;;;;;;4.13;2.13;;;;;;;29.15;35.07;102090.69;5032058;28;20037;-68
2022/06/12 11:49:27;;;;;;;10.48;2.65;;;;;;;29.18;34.31;102081.13;5031830;28;20399;-67
2022/06/12 11:52:16;;;;;;;9.73;2.80;;;;;;;29.09;34.35;102086.81;5031316;28;20120;-68
2022/06/12 11:55:10;;;;;;;5.72;2.10;;;;;;;29.09;34.19;102092.34;5018875;28;20050;-68
2022/06/12 11:57:59;;;;;;;7.00;2.58;;;;;;;29.07;34.12;102072.31;5012408;28;20404;-68
2022/06/12 12:00:36;;;;;;;8.23;2.88;;;;;;;29.10;34.14;102071.91;5030358;28;20415;-68
2022/06/12 12:03:24;;;;;;;7.65;2.67;;;;;;;29.15;34.39;102070.47;5031298;28;20041;-68
2022/06/12 12:06:10;;;;;;;8.27;2.63;;;;;;;29.22;34.17;102066.69;5031009;28;20038;-68
2022/06/12 12:08:45;;;;;;;7.72;2.10;;;;;;;29.23;33.80;102071.16;5031355;28;20095;-68
2022/06/12 12:11:18;;;;;;;6.65;2.50;;;;;;;29.16;33.61;102072.16;5031618;28;20406;-68